Time,TemperatureF,DewpointF,PressureIn,WindDirection,WindDirectionDegrees,WindSpeedMPH,WindSpeedGustMPH,Humidity,HourlyPrecipIn,Conditions,Clouds,dailyrainin,SoftwareType,DateUTC
2013-01-11 00:03:00,70.6,66.6,30.30,SE,139,0.0,0.0,87,0.00,,CLR,0.00,VWS V14.01,2013-01-11 05:03:00,
2013-01-11 00:05:00,70.6,66.6,30.30,SE,139,2.0,3.0,87,0.00,,CLR,0.00,VWS V14.01,2013-01-11 05:05:00,
2013-01-11 00:10:00,70.6,66.6,30.29,SE,140,0.0,3.0,87,0.00,,CLR,0.00,VWS V14.01,2013-01-11 05:10:00,
2013-01-11 00:15:00,70.6,66.6,30.29,SE,140,0.0,3.0,87,0.00,,CLR,0.00,VWS V14.01,2013-01-11 05:15:00,
2013-01-11 00:20:00,70.6,66.9,30.29,SE,140,0.0,3.0,88,0.00,,CLR,0.00,VWS V14.01,2013-01-11 05:20:00,
2013-01-11 00:25:00,70.6,66.9,30.28,SE,140,0.0,3.0,88,0.00,,CLR,0.00,VWS V14.01,2013-01-11 05:25:00,
2013-01-11 00:30:00,70.6,66.9,30.29,SE,139,2.0,4.0,88,0.00,,CLR,0.00,VWS V14.01,2013-01-11 05:30:00,
2013-01-11 00:35:00,70.5,67.1,30.28,ESE,121,3.0,4.0,89,0.00,,CLR,0.00,VWS V14.01,2013-01-11 05:35:00,
2013-01-11 00:40:00,70.5,66.8,30.28,ESE,116,0.0,5.0,88,0.00,,CLR,0.00,VWS V14.01,2013-01-11 05:40:00,
2013-01-11 00:45:00,70.5,67.1,30.29,SE,137,3.0,5.0,89,0.00,,CLR,0.00,VWS V14.01,2013-01-11 05:45:00,
2013-01-11 00:50:00,70.6,67.5,30.28,SE,138,0.0,5.0,90,0.00,,CLR,0.00,VWS V14.01,2013-01-11 05:50:00,
2013-01-11 00:55:00,70.6,67.2,30.28,SE,132,0.0,5.0,89,0.00,,CLR,0.00,VWS V14.01,2013-01-11 05:55:00,
2013-01-11 01:01:00,70.6,67.2,30.28,SE,133,3.0,3.0,89,0.00,,FEW049,0.00,VWS V14.01,2013-01-11 06:01:00,
2013-01-11 01:06:00,70.6,67.2,30.28,SE,135,4.0,5.0,89,0.00,,FEW049,0.00,VWS V14.01,2013-01-11 06:06:00,
2013-01-11 01:11:00,70.7,67.3,30.28,ESE,114,0.0,5.0,89,0.00,,FEW049,0.00,VWS V14.01,2013-01-11 06:11:00,
2013-01-11 01:16:00,70.7,67.3,30.28,SE,146,3.0,5.0,89,0.00,,FEW049,0.00,VWS V14.01,2013-01-11 06:16:00,
2013-01-11 01:21:00,70.8,67.4,30.27,SSE,150,1.0,5.0,89,0.00,,FEW049,0.00,VWS V14.01,2013-01-11 06:21:00,
2013-01-11 01:26:00,70.8,67.7,30.27,SE,139,3.0,9.0,90,0.00,,FEW049,0.00,VWS V14.01,2013-01-11 06:26:00,
2013-01-11 01:31:00,70.9,67.8,30.26,SE,130,5.0,9.0,90,0.00,,FEW049,0.00,VWS V14.01,2013-01-11 06:31:00,
2013-01-11 01:36:00,70.9,67.8,30.27,SSE,147,3.0,9.0,90,0.00,,FEW049,0.00,VWS V14.01,2013-01-11 06:36:00,
2013-01-11 01:41:00,71.0,67.9,30.27,ESE,116,5.0,9.0,90,0.00,,FEW049,0.00,VWS V14.01,2013-01-11 06:41:00,
2013-01-11 01:46:00,71.1,68.0,30.26,SSE,155,3.0,9.0,90,0.00,,FEW049,0.00,VWS V14.01,2013-01-11 06:46:00,
2013-01-11 01:51:00,71.1,68.0,30.26,SE,142,1.0,9.0,90,0.00,,FEW049,0.00,VWS V14.01,2013-01-11 06:51:00,
2013-01-11 01:56:00,71.2,67.8,30.26,SE,145,4.0,9.0,89,0.00,,FEW049,0.00,VWS V14.01,2013-01-11 06:56:00,
2013-01-11 02:01:00,71.2,67.8,30.26,SE,129,6.0,6.0,89,0.00,,FEW023,0.00,VWS V14.01,2013-01-11 07:01:00,
2013-01-11 02:06:00,71.3,67.9,30.25,SE,140,0.0,6.0,89,0.00,,FEW023,0.00,VWS V14.01,2013-01-11 07:06:00,
2013-01-11 02:11:00,71.3,68.2,30.26,SE,138,3.0,6.0,90,0.00,,FEW023,0.00,VWS V14.01,2013-01-11 07:11:00,
2013-01-11 02:16:00,71.3,67.9,30.26,SE,133,2.0,6.0,89,0.00,,FEW023,0.00,VWS V14.01,2013-01-11 07:16:00,
2013-01-11 02:21:00,71.3,67.9,30.26,SSE,162,0.0,6.0,89,0.00,,FEW023,0.00,VWS V14.01,2013-01-11 07:21:00,
2013-01-11 02:26:00,71.4,68.0,30.25,SSE,162,0.0,6.0,89,0.00,,FEW023,0.00,VWS V14.01,2013-01-11 07:26:00,
2013-01-11 02:31:00,71.4,68.0,30.26,SSE,162,0.0,6.0,89,0.00,,FEW023,0.00,VWS V14.01,2013-01-11 07:31:00,
2013-01-11 02:36:00,71.4,68.0,30.26,SSE,163,0.0,6.0,89,0.00,,FEW023,0.00,VWS V14.01,2013-01-11 07:36:00,
2013-01-11 02:41:00,71.4,68.3,30.25,SE,139,3.0,6.0,90,0.00,,FEW023,0.00,VWS V14.01,2013-01-11 07:41:00,
2013-01-11 02:46:00,71.4,68.3,30.25,SE,141,3.0,6.0,90,0.00,,FEW023,0.00,VWS V14.01,2013-01-11 07:46:00,
2013-01-11 02:51:00,71.4,68.0,30.24,SSE,148,2.0,6.0,89,0.00,,FEW023,0.00,VWS V14.01,2013-01-11 07:51:00,
2013-01-11 02:56:00,71.3,68.2,30.24,SE,138,4.0,8.0,90,0.00,,FEW023,0.00,VWS V14.01,2013-01-11 07:56:00,
2013-01-11 03:01:00,71.4,68.3,30.24,SE,143,1.0,3.0,90,0.00,,CLR,0.00,VWS V14.01,2013-01-11 08:01:00,
2013-01-11 03:06:00,71.4,68.3,30.24,SE,143,0.0,3.0,90,0.00,,CLR,0.00,VWS V14.01,2013-01-11 08:06:00,
2013-01-11 03:11:00,71.3,68.2,30.23,ESE,119,0.0,6.0,90,0.00,,CLR,0.00,VWS V14.01,2013-01-11 08:11:00,
2013-01-11 03:16:00,71.3,67.9,30.24,SE,130,0.0,6.0,89,0.00,,CLR,0.00,VWS V14.01,2013-01-11 08:16:00,
2013-01-11 03:21:00,71.3,68.2,30.24,SE,133,4.0,6.0,90,0.00,,CLR,0.00,VWS V14.01,2013-01-11 08:21:00,
2013-01-11 03:26:00,71.2,68.1,30.24,SE,125,4.0,7.0,90,0.00,,CLR,0.00,VWS V14.01,2013-01-11 08:26:00,
2013-01-11 03:31:00,71.2,67.8,30.23,SE,133,0.0,7.0,89,0.00,,CLR,0.00,VWS V14.01,2013-01-11 08:31:00,
2013-01-11 03:36:00,71.2,68.1,30.24,SE,131,2.0,7.0,90,0.00,,CLR,0.00,VWS V14.01,2013-01-11 08:36:00,
2013-01-11 03:41:00,71.2,68.1,30.23,SE,142,3.0,7.0,90,0.00,,CLR,0.00,VWS V14.01,2013-01-11 08:41:00,
2013-01-11 03:46:00,71.2,67.8,30.24,SE,126,0.0,7.0,89,0.00,,CLR,0.00,VWS V14.01,2013-01-11 08:46:00,
2013-01-11 03:51:00,71.1,68.0,30.23,SE,127,0.0,7.0,90,0.00,,CLR,0.00,VWS V14.01,2013-01-11 08:51:00,
2013-01-11 03:56:00,71.1,68.0,30.23,SE,127,0.0,7.0,90,0.00,,CLR,0.00,VWS V14.01,2013-01-11 08:56:00,
2013-01-11 04:01:00,71.1,68.0,30.23,SE,130,0.0,0.0,90,0.00,,CLR,0.00,VWS V14.01,2013-01-11 09:01:00,
2013-01-11 04:06:00,71.0,67.9,30.24,SE,130,0.0,1.0,90,0.00,,CLR,0.00,VWS V14.01,2013-01-11 09:06:00,
2013-01-11 04:11:00,71.0,67.9,30.23,SE,130,0.0,1.0,90,0.00,,CLR,0.00,VWS V14.01,2013-01-11 09:11:00,
2013-01-11 04:16:00,70.9,67.5,30.23,SE,130,0.0,4.0,89,0.00,,CLR,0.00,VWS V14.01,2013-01-11 09:16:00,
2013-01-11 04:21:00,70.9,67.8,30.22,SE,130,0.0,4.0,90,0.00,,CLR,0.00,VWS V14.01,2013-01-11 09:21:00,
2013-01-11 04:26:00,70.9,67.5,30.23,SE,130,0.0,4.0,89,0.00,,CLR,0.00,VWS V14.01,2013-01-11 09:26:00,
2013-01-11 04:31:00,70.8,67.4,30.22,SE,130,0.0,4.0,89,0.00,,CLR,0.00,VWS V14.01,2013-01-11 09:31:00,
2013-01-11 04:36:00,70.6,67.2,30.23,SE,130,0.0,4.0,89,0.00,,CLR,0.00,VWS V14.01,2013-01-11 09:36:00,
2013-01-11 04:41:00,70.6,67.2,30.22,SE,130,0.0,4.0,89,0.00,,CLR,0.00,VWS V14.01,2013-01-11 09:41:00,
2013-01-11 04:46:00,70.5,67.4,30.23,SE,130,0.0,4.0,90,0.00,,CLR,0.00,VWS V14.01,2013-01-11 09:46:00,
2013-01-11 04:51:00,70.5,67.4,30.23,SE,130,0.0,4.0,90,0.00,,CLR,0.00,VWS V14.01,2013-01-11 09:51:00,
2013-01-11 04:56:00,70.3,67.2,30.23,SE,130,0.0,4.0,90,0.00,,CLR,0.00,VWS V14.01,2013-01-11 09:56:00,
2013-01-11 05:01:00,70.3,67.6,30.23,SE,130,0.0,0.0,91,0.00,,SCT047,0.00,VWS V14.01,2013-01-11 10:01:00,
2013-01-11 05:06:00,70.2,67.1,30.22,SE,129,0.0,0.0,90,0.00,,SCT047,0.00,VWS V14.01,2013-01-11 10:06:00,
2013-01-11 05:11:00,70.0,66.9,30.22,SE,127,0.0,0.0,90,0.00,,SCT047,0.00,VWS V14.01,2013-01-11 10:11:00,
2013-01-11 05:16:00,69.9,66.8,30.22,SE,128,0.0,0.0,90,0.00,,SCT047,0.00,VWS V14.01,2013-01-11 10:16:00,
2013-01-11 05:21:00,69.8,66.4,30.22,SE,129,0.0,0.0,89,0.00,,SCT047,0.00,VWS V14.01,2013-01-11 10:21:00,
2013-01-11 05:26:00,69.7,66.3,30.22,SE,129,0.0,0.0,89,0.00,,SCT047,0.00,VWS V14.01,2013-01-11 10:26:00,
2013-01-11 05:31:00,69.7,66.6,30.22,SE,128,0.0,0.0,90,0.00,,SCT047,0.00,VWS V14.01,2013-01-11 10:31:00,
2013-01-11 05:36:00,69.6,66.2,30.21,SE,129,0.0,1.0,89,0.00,,SCT047,0.00,VWS V14.01,2013-01-11 10:36:00,
2013-01-11 05:41:00,69.5,66.8,30.21,SE,125,0.0,2.0,91,0.00,,SCT047,0.00,VWS V14.01,2013-01-11 10:41:00,
2013-01-11 05:46:00,69.6,66.9,30.22,SE,127,0.0,2.0,91,0.00,,SCT047,0.00,VWS V14.01,2013-01-11 10:46:00,
2013-01-11 05:51:00,69.6,67.2,30.21,SE,124,0.0,3.0,92,0.00,,SCT047,0.00,VWS V14.01,2013-01-11 10:51:00,
2013-01-11 05:56:00,69.6,67.2,30.22,SE,124,0.0,3.0,92,0.00,,SCT047,0.00,VWS V14.01,2013-01-11 10:56:00,
2013-01-11 06:01:00,69.6,67.2,30.21,SE,127,0.0,0.0,92,0.00,,FEW049,0.00,VWS V14.01,2013-01-11 11:01:00,
2013-01-11 06:06:00,69.6,67.2,30.22,SE,127,2.0,2.0,92,0.00,,FEW049,0.00,VWS V14.01,2013-01-11 11:06:00,
2013-01-11 06:11:00,69.6,67.5,30.22,SE,127,0.0,2.0,93,0.00,,FEW049,0.00,VWS V14.01,2013-01-11 11:11:00,
2013-01-11 06:16:00,69.5,67.1,30.22,ESE,123,0.0,2.0,92,0.00,,FEW049,0.00,VWS V14.01,2013-01-11 11:16:00,
2013-01-11 06:21:00,69.5,67.4,30.22,SE,124,0.0,2.0,93,0.00,,FEW049,0.00,VWS V14.01,2013-01-11 11:21:00,
2013-01-11 06:26:00,69.5,66.8,30.22,SE,130,0.0,2.0,91,0.00,,FEW049,0.00,VWS V14.01,2013-01-11 11:26:00,
2013-01-11 06:31:00,69.4,66.7,30.22,SE,130,0.0,2.0,91,0.00,,FEW049,0.00,VWS V14.01,2013-01-11 11:31:00,
2013-01-11 06:36:00,69.4,66.7,30.23,SE,130,0.0,2.0,91,0.00,,FEW049,0.00,VWS V14.01,2013-01-11 11:36:00,
2013-01-11 06:41:00,69.3,66.6,30.23,SE,129,0.0,2.0,91,0.00,,FEW049,0.00,VWS V14.01,2013-01-11 11:41:00,
2013-01-11 06:46:00,69.2,66.5,30.24,SE,129,0.0,2.0,91,0.00,,FEW049,0.00,VWS V14.01,2013-01-11 11:46:00,
2013-01-11 06:51:00,69.1,66.4,30.23,SE,129,0.0,2.0,91,0.00,,FEW049,0.00,VWS V14.01,2013-01-11 11:51:00,
2013-01-11 06:56:00,69.1,66.7,30.23,SE,127,0.0,2.0,92,0.00,,FEW049,0.00,VWS V14.01,2013-01-11 11:56:00,
2013-01-11 07:01:00,69.1,66.7,30.24,SE,126,0.0,0.0,92,0.00,,BKN048,0.00,VWS V14.01,2013-01-11 12:01:00,
2013-01-11 07:06:00,69.1,66.4,30.24,SE,130,0.0,0.0,91,0.00,,BKN048,0.00,VWS V14.01,2013-01-11 12:06:00,
2013-01-11 07:11:00,69.1,66.4,30.23,SE,130,0.0,0.0,91,0.00,,BKN048,0.00,VWS V14.01,2013-01-11 12:11:00,
2013-01-11 07:16:00,69.1,66.7,30.24,SE,130,0.0,0.0,92,0.00,,BKN048,0.00,VWS V14.01,2013-01-11 12:16:00,
2013-01-11 07:21:00,69.0,66.6,30.24,SE,130,0.0,0.0,92,0.00,,BKN048,0.00,VWS V14.01,2013-01-11 12:21:00,
2013-01-11 07:26:00,69.1,67.0,30.24,SE,130,0.0,0.0,93,0.00,,BKN048,0.00,VWS V14.01,2013-01-11 12:26:00,
2013-01-11 07:31:00,69.1,67.0,30.25,SE,130,0.0,0.0,93,0.00,,BKN048,0.00,VWS V14.01,2013-01-11 12:31:00,
2013-01-11 07:36:00,69.3,67.5,30.24,SE,130,0.0,1.0,94,0.00,,BKN048,0.00,VWS V14.01,2013-01-11 12:36:00,
2013-01-11 07:41:00,69.4,67.6,30.24,SE,130,2.0,4.0,94,0.00,,BKN048,0.00,VWS V14.01,2013-01-11 12:41:00,
2013-01-11 07:46:00,69.5,67.7,30.24,SE,128,0.0,4.0,94,0.00,,BKN048,0.00,VWS V14.01,2013-01-11 12:46:00,
2013-01-11 07:51:00,69.9,68.4,30.24,SE,128,3.0,4.0,95,0.00,,BKN048,0.00,VWS V14.01,2013-01-11 12:51:00,
2013-01-11 07:56:00,70.2,68.7,30.24,ESE,103,3.0,5.0,95,0.00,,BKN048,0.00,VWS V14.01,2013-01-11 12:56:00,
2013-01-11 08:01:00,70.4,68.9,30.24,East,98,3.0,4.0,95,0.00,,OVC055,0.00,VWS V14.01,2013-01-11 13:01:00,
2013-01-11 08:06:00,70.7,68.9,30.25,East,83,3.0,5.0,94,0.00,,OVC055,0.00,VWS V14.01,2013-01-11 13:06:00,
2013-01-11 08:11:00,70.9,69.1,30.25,ESE,109,4.0,6.0,94,0.00,,OVC055,0.00,VWS V14.01,2013-01-11 13:11:00,
2013-01-11 08:16:00,71.1,69.0,30.26,ESE,105,0.0,6.0,93,0.00,,OVC055,0.00,VWS V14.01,2013-01-11 13:16:00,
2013-01-11 08:21:00,71.4,69.6,30.25,ENE,72,0.0,6.0,94,0.00,,OVC055,0.00,VWS V14.01,2013-01-11 13:21:00,
2013-01-11 08:26:00,71.7,68.9,30.26,East,90,0.0,6.0,91,0.00,,OVC055,0.00,VWS V14.01,2013-01-11 13:26:00,
2013-01-11 08:31:00,71.9,69.1,30.26,ENE,62,3.0,6.0,91,0.00,,OVC055,0.00,VWS V14.01,2013-01-11 13:31:00,
2013-01-11 08:36:00,72.0,69.2,30.26,East,79,0.0,6.0,91,0.00,,OVC055,0.00,VWS V14.01,2013-01-11 13:36:00,
2013-01-11 08:41:00,72.1,69.3,30.26,East,79,4.0,6.0,91,0.00,,OVC055,0.00,VWS V14.01,2013-01-11 13:41:00,
2013-01-11 08:46:00,72.2,69.1,30.26,ENE,69,0.0,6.0,90,0.00,,OVC055,0.00,VWS V14.01,2013-01-11 13:46:00,
2013-01-11 08:51:00,72.4,69.3,30.27,NE,48,1.0,6.0,90,0.00,,OVC055,0.00,VWS V14.01,2013-01-11 13:51:00,
2013-01-11 08:56:00,72.5,69.4,30.27,ENE,64,0.0,6.0,90,0.00,,OVC055,0.00,VWS V14.01,2013-01-11 13:56:00,
2013-01-11 09:01:00,72.5,69.4,30.26,ESE,118,3.0,5.0,90,0.00,,OVC060,0.00,VWS V14.01,2013-01-11 14:01:00,
2013-01-11 09:06:00,72.6,69.5,30.27,ESE,123,1.0,5.0,90,0.00,,OVC060,0.00,VWS V14.01,2013-01-11 14:06:00,
2013-01-11 09:11:00,72.6,69.5,30.27,ESE,113,4.0,6.0,90,0.00,,OVC060,0.00,VWS V14.01,2013-01-11 14:11:00,
2013-01-11 09:16:00,72.8,69.7,30.28,ESE,106,4.0,6.0,90,0.00,,OVC060,0.00,VWS V14.01,2013-01-11 14:16:00,
2013-01-11 09:21:00,72.8,69.4,30.28,ESE,121,7.0,7.0,89,0.00,,OVC060,0.00,VWS V14.01,2013-01-11 14:21:00,
2013-01-11 09:26:00,73.0,69.6,30.28,ESE,120,3.0,10.0,89,0.00,,OVC060,0.00,VWS V14.01,2013-01-11 14:26:00,
2013-01-11 09:31:00,73.1,69.7,30.29,East,81,2.0,10.0,89,0.00,,OVC060,0.00,VWS V14.01,2013-01-11 14:31:00,
2013-01-11 09:36:00,73.3,69.5,30.29,ESE,121,5.0,10.0,88,0.00,,OVC060,0.00,VWS V14.01,2013-01-11 14:36:00,
2013-01-11 09:41:00,73.4,69.6,30.28,ESE,120,5.0,10.0,88,0.00,,OVC060,0.00,VWS V14.01,2013-01-11 14:41:00,
2013-01-11 09:46:00,73.5,69.4,30.28,ESE,104,5.0,10.0,87,0.00,,OVC060,0.00,VWS V14.01,2013-01-11 14:46:00,
2013-01-11 09:51:00,73.6,69.2,30.28,ESE,116,6.0,10.0,86,0.00,,OVC060,0.00,VWS V14.01,2013-01-11 14:51:00,
2013-01-11 09:56:00,73.8,69.0,30.28,East,101,3.0,12.0,85,0.00,,OVC060,0.00,VWS V14.01,2013-01-11 14:56:00,
2013-01-11 10:01:00,74.0,69.2,30.29,ESE,123,6.0,9.0,85,0.00,,OVC060,0.00,VWS V14.01,2013-01-11 15:01:00,
2013-01-11 10:06:00,74.2,68.7,30.28,SE,135,4.0,11.0,83,0.00,,OVC065,0.00,VWS V14.01,2013-01-11 15:06:00,
2013-01-11 10:11:00,74.4,69.3,30.28,East,81,4.0,11.0,84,0.00,,OVC065,0.00,VWS V14.01,2013-01-11 15:11:00,
2013-01-11 10:16:00,74.5,69.0,30.29,East,97,5.0,11.0,83,0.00,,OVC065,0.00,VWS V14.01,2013-01-11 15:16:00,
2013-01-11 10:21:00,74.6,69.1,30.28,ESE,113,12.0,14.0,83,0.00,,OVC065,0.00,VWS V14.01,2013-01-11 15:21:00,
2013-01-11 10:26:00,74.7,68.8,30.28,ESE,108,5.0,14.0,82,0.00,,OVC065,0.00,VWS V14.01,2013-01-11 15:26:00,
2013-01-11 10:31:00,74.7,68.8,30.28,SE,128,3.0,14.0,82,0.00,,OVC065,0.00,VWS V14.01,2013-01-11 15:31:00,
2013-01-11 10:36:00,74.9,69.0,30.28,ESE,107,8.0,14.0,82,0.00,,OVC065,0.00,VWS V14.01,2013-01-11 15:36:00,
2013-01-11 10:41:00,75.2,69.0,30.27,East,95,10.0,14.0,81,0.00,,OVC065,0.00,VWS V14.01,2013-01-11 15:41:00,
2013-01-11 10:46:00,75.3,68.7,30.27,East,90,6.0,15.0,80,0.00,,OVC065,0.00,VWS V14.01,2013-01-11 15:46:00,
2013-01-11 10:51:00,75.4,69.2,30.27,ESE,117,8.0,15.0,81,0.00,,OVC065,0.00,VWS V14.01,2013-01-11 15:51:00,
2013-01-11 10:56:00,75.7,69.5,30.28,ESE,118,5.0,15.0,81,0.00,,OVC065,0.00,VWS V14.01,2013-01-11 15:56:00,
2013-01-11 11:01:00,76.1,69.5,30.26,East,91,6.0,10.0,80,0.00,,BKN065,0.00,VWS V14.01,2013-01-11 16:01:00,
2013-01-11 11:06:00,76.3,69.3,30.26,East,93,3.0,16.0,79,0.00,,BKN065,0.00,VWS V14.01,2013-01-11 16:06:00,
2013-01-11 11:11:00,76.6,69.6,30.26,ESE,113,12.0,16.0,79,0.00,,BKN065,0.00,VWS V14.01,2013-01-11 16:11:00,
2013-01-11 11:16:00,76.7,69.3,30.25,ESE,115,10.0,16.0,78,0.00,,BKN065,0.00,VWS V14.01,2013-01-11 16:16:00,
2013-01-11 11:21:00,76.8,69.4,30.26,NE,47,10.0,16.0,78,0.00,,BKN065,0.00,VWS V14.01,2013-01-11 16:21:00,
2013-01-11 11:26:00,77.0,69.2,30.26,SE,139,6.0,16.0,77,0.00,,BKN065,0.00,VWS V14.01,2013-01-11 16:26:00,
2013-01-11 11:31:00,77.0,69.2,30.26,ESE,114,4.0,16.0,77,0.00,,BKN065,0.00,VWS V14.01,2013-01-11 16:31:00,
2013-01-11 11:36:00,77.2,69.1,30.26,ESE,115,7.0,16.0,76,0.00,,BKN065,0.00,VWS V14.01,2013-01-11 16:36:00,
2013-01-11 11:41:00,77.3,69.2,30.25,ESE,112,9.0,16.0,76,0.00,,BKN065,0.00,VWS V14.01,2013-01-11 16:41:00,
2013-01-11 11:46:00,77.4,69.2,30.25,ESE,123,5.0,16.0,76,0.00,,BKN065,0.00,VWS V14.01,2013-01-11 16:46:00,
2013-01-11 11:51:00,77.4,69.2,30.25,ESE,111,4.0,17.0,76,0.00,,BKN065,0.00,VWS V14.01,2013-01-11 16:51:00,
2013-01-11 11:56:00,77.6,69.1,30.24,SE,135,6.0,17.0,75,0.00,,BKN065,0.00,VWS V14.01,2013-01-11 16:56:00,
2013-01-11 12:01:00,77.7,69.2,30.25,ESE,114,9.0,16.0,75,0.00,,FEW028,0.00,VWS V14.01,2013-01-11 17:01:00,
2013-01-11 12:06:00,77.6,69.1,30.25,ESE,117,8.0,16.0,75,0.00,,FEW028,0.00,VWS V14.01,2013-01-11 17:06:00,
2013-01-11 12:11:00,77.8,68.9,30.25,ESE,118,9.0,16.0,74,0.00,,FEW028,0.00,VWS V14.01,2013-01-11 17:11:00,
2013-01-11 12:16:00,77.8,68.9,30.24,ESE,103,8.0,18.0,74,0.00,,FEW028,0.00,VWS V14.01,2013-01-11 17:16:00,
2013-01-11 12:21:00,77.7,68.8,30.24,East,98,11.0,18.0,74,0.00,,FEW028,0.00,VWS V14.01,2013-01-11 17:21:00,
2013-01-11 12:26:00,77.8,68.5,30.24,ESE,108,11.0,18.0,73,0.00,,FEW028,0.00,VWS V14.01,2013-01-11 17:26:00,
2013-01-11 12:31:00,77.8,68.9,30.24,ESE,121,5.0,18.0,74,0.00,,FEW028,0.00,VWS V14.01,2013-01-11 17:31:00,
2013-01-11 12:36:00,78.0,69.1,30.24,SE,138,10.0,18.0,74,0.00,,FEW028,0.00,VWS V14.01,2013-01-11 17:36:00,
2013-01-11 12:41:00,78.1,69.1,30.23,ESE,114,12.0,18.0,74,0.00,,FEW028,0.00,VWS V14.01,2013-01-11 17:41:00,
2013-01-11 12:46:00,78.3,69.3,30.23,SSE,150,9.0,18.0,74,0.00,,FEW028,0.00,VWS V14.01,2013-01-11 17:46:00,
2013-01-11 12:51:00,78.3,68.5,30.23,SE,143,9.0,18.0,72,0.00,,FEW028,0.00,VWS V14.01,2013-01-11 17:51:00,
2013-01-11 12:56:00,78.5,68.7,30.23,ESE,108,9.0,18.0,72,0.00,,FEW028,0.00,VWS V14.01,2013-01-11 17:56:00,
2013-01-11 13:01:00,78.6,68.4,30.22,SSE,149,3.0,6.0,71,0.00,,BKN060,0.00,VWS V14.01,2013-01-11 18:01:00,
2013-01-11 13:06:00,78.8,69.4,30.22,SE,141,10.0,10.0,73,0.00,,BKN060,0.00,VWS V14.01,2013-01-11 18:06:00,
2013-01-11 13:11:00,79.0,68.4,30.22,SE,129,8.0,17.0,70,0.00,,BKN060,0.00,VWS V14.01,2013-01-11 18:11:00,
2013-01-11 13:16:00,79.0,68.8,30.21,ESE,118,6.0,17.0,71,0.00,,BKN060,0.00,VWS V14.01,2013-01-11 18:16:00,
2013-01-11 13:21:00,79.0,68.0,30.21,ESE,111,10.0,17.0,69,0.00,,BKN060,0.00,VWS V14.01,2013-01-11 18:21:00,
2013-01-11 13:26:00,78.7,67.7,30.22,SE,141,8.0,17.0,69,0.00,,BKN060,0.00,VWS V14.01,2013-01-11 18:26:00,
2013-01-11 13:31:00,78.5,67.5,30.22,SSE,150,9.0,17.0,69,0.00,,BKN060,0.00,VWS V14.01,2013-01-11 18:31:00,
2013-01-11 13:36:00,78.1,67.5,30.21,ESE,114,5.0,17.0,70,0.00,,BKN060,0.00,VWS V14.01,2013-01-11 18:36:00,
2013-01-11 13:41:00,77.9,67.3,30.21,SE,139,7.0,17.0,70,0.00,,BKN060,0.00,VWS V14.01,2013-01-11 18:41:00,
2013-01-11 13:46:00,77.7,67.6,30.21,SE,136,9.0,17.0,71,0.00,,BKN060,0.00,VWS V14.01,2013-01-11 18:46:00,
2013-01-11 13:51:00,77.5,67.8,30.20,SSE,161,9.0,17.0,72,0.00,,BKN060,0.00,VWS V14.01,2013-01-11 18:51:00,
2013-01-11 13:56:00,77.5,68.2,30.21,SSE,163,7.0,17.0,73,0.00,,BKN060,0.00,VWS V14.01,2013-01-11 18:56:00,
2013-01-11 14:01:00,77.6,68.3,30.19,ESE,106,5.0,8.0,73,0.00,,BKN060,0.00,VWS V14.01,2013-01-11 19:01:00,
2013-01-11 14:06:00,77.9,68.2,30.20,ESE,106,9.0,15.0,72,0.00,,BKN060,0.00,VWS V14.01,2013-01-11 19:06:00,
2013-01-11 14:11:00,78.0,68.7,30.20,South,179,6.0,15.0,73,0.00,,BKN060,0.00,VWS V14.01,2013-01-11 19:11:00,
2013-01-11 14:16:00,78.1,69.1,30.20,SSE,147,3.0,15.0,74,0.00,,BKN060,0.00,VWS V14.01,2013-01-11 19:16:00,
2013-01-11 14:21:00,78.2,68.8,30.20,SE,124,11.0,15.0,73,0.00,,BKN060,0.00,VWS V14.01,2013-01-11 19:21:00,
2013-01-11 14:26:00,78.2,68.8,30.20,ESE,113,9.0,15.0,73,0.00,,BKN060,0.00,VWS V14.01,2013-01-11 19:26:00,
2013-01-11 14:31:00,77.9,68.9,30.19,South,172,5.0,16.0,74,0.00,,BKN060,0.00,VWS V14.01,2013-01-11 19:31:00,
2013-01-11 14:36:00,77.9,68.6,30.20,SSE,163,4.0,16.0,73,0.00,,BKN060,0.00,VWS V14.01,2013-01-11 19:36:00,
2013-01-11 14:41:00,78.0,69.1,30.19,SE,126,5.0,16.0,74,0.00,,BKN060,0.00,VWS V14.01,2013-01-11 19:41:00,
2013-01-11 14:46:00,78.0,67.8,30.20,ESE,104,7.0,16.0,71,0.00,,BKN060,0.00,VWS V14.01,2013-01-11 19:46:00,
2013-01-11 14:51:00,77.8,68.5,30.20,ESE,104,6.0,16.0,73,0.00,,BKN060,0.00,VWS V14.01,2013-01-11 19:51:00,
2013-01-11 14:56:00,77.7,68.0,30.19,SE,136,5.0,16.0,72,0.00,,BKN060,0.00,VWS V14.01,2013-01-11 19:56:00,
2013-01-11 15:01:00,77.6,67.9,30.19,SE,132,5.0,13.0,72,0.00,,CLR,0.00,VWS V14.01,2013-01-11 20:01:00,
2013-01-11 15:06:00,77.7,68.0,30.20,SSE,155,3.0,14.0,72,0.00,,CLR,0.00,VWS V14.01,2013-01-11 20:06:00,
2013-01-11 15:11:00,77.8,68.1,30.19,SE,130,4.0,14.0,72,0.00,,CLR,0.00,VWS V14.01,2013-01-11 20:11:00,
2013-01-11 15:16:00,77.7,68.4,30.20,SSE,160,3.0,14.0,73,0.00,,CLR,0.00,VWS V14.01,2013-01-11 20:16:00,
2013-01-11 15:21:00,77.7,68.4,30.20,SE,124,5.0,15.0,73,0.00,,CLR,0.00,VWS V14.01,2013-01-11 20:21:00,
2013-01-11 15:26:00,77.7,68.8,30.19,East,98,10.0,15.0,74,0.00,,CLR,0.00,VWS V14.01,2013-01-11 20:26:00,
2013-01-11 15:31:00,77.6,68.3,30.19,SE,125,10.0,15.0,73,0.00,,CLR,0.00,VWS V14.01,2013-01-11 20:31:00,
2013-01-11 15:36:00,77.6,68.3,30.19,ESE,115,4.0,15.0,73,0.00,,CLR,0.00,VWS V14.01,2013-01-11 20:36:00,
2013-01-11 15:41:00,77.5,68.6,30.19,SE,141,2.0,15.0,74,0.00,,CLR,0.00,VWS V14.01,2013-01-11 20:41:00,
2013-01-11 15:46:00,77.6,68.7,30.19,SE,129,7.0,16.0,74,0.00,,CLR,0.00,VWS V14.01,2013-01-11 20:46:00,
2013-01-11 15:51:00,77.6,68.3,30.19,ESE,117,4.0,16.0,73,0.00,,CLR,0.00,VWS V14.01,2013-01-11 20:51:00,
2013-01-11 15:56:00,77.5,68.2,30.19,SE,140,8.0,16.0,73,0.00,,CLR,0.00,VWS V14.01,2013-01-11 20:56:00,
2013-01-11 16:01:00,77.4,68.5,30.19,SSE,154,8.0,10.0,74,0.00,,CLR,0.00,VWS V14.01,2013-01-11 21:01:00,
2013-01-11 16:06:00,77.4,68.5,30.19,SSW,192,3.0,12.0,74,0.00,,CLR,0.00,VWS V14.01,2013-01-11 21:06:00,
2013-01-11 16:11:00,77.2,68.3,30.18,ESE,113,8.0,12.0,74,0.00,,CLR,0.00,VWS V14.01,2013-01-11 21:11:00,
2013-01-11 16:16:00,77.1,68.2,30.19,ESE,105,4.0,13.0,74,0.00,,CLR,0.00,VWS V14.01,2013-01-11 21:16:00,
2013-01-11 16:21:00,77.1,68.2,30.19,ESE,120,7.0,13.0,74,0.00,,CLR,0.00,VWS V14.01,2013-01-11 21:21:00,
2013-01-11 16:26:00,77.0,68.1,30.19,ESE,106,4.0,13.0,74,0.00,,CLR,0.00,VWS V14.01,2013-01-11 21:26:00,
2013-01-11 16:31:00,76.8,67.9,30.19,SSE,161,5.0,14.0,74,0.00,,CLR,0.00,VWS V14.01,2013-01-11 21:31:00,
2013-01-11 16:36:00,76.7,67.8,30.18,SE,129,5.0,14.0,74,0.00,,CLR,0.00,VWS V14.01,2013-01-11 21:36:00,
2013-01-11 16:41:00,76.6,67.7,30.18,SSE,148,3.0,14.0,74,0.00,,CLR,0.00,VWS V14.01,2013-01-11 21:41:00,
2013-01-11 16:46:00,76.4,67.9,30.19,ESE,119,3.0,14.0,75,0.00,,CLR,0.00,VWS V14.01,2013-01-11 21:46:00,
2013-01-11 16:51:00,76.3,67.8,30.19,SE,126,3.0,14.0,75,0.00,,CLR,0.00,VWS V14.01,2013-01-11 21:51:00,
2013-01-11 16:56:00,76.2,68.1,30.19,ESE,121,5.0,14.0,76,0.00,,CLR,0.00,VWS V14.01,2013-01-11 21:56:00,
2013-01-11 17:01:00,76.1,67.6,30.19,SE,144,6.0,9.0,75,0.00,,CLR,0.00,VWS V14.01,2013-01-11 22:01:00,
2013-01-11 17:06:00,76.0,67.9,30.19,ESE,122,5.0,10.0,76,0.00,,CLR,0.00,VWS V14.01,2013-01-11 22:06:00,
2013-01-11 17:11:00,75.8,67.7,30.19,ESE,112,2.0,10.0,76,0.00,,CLR,0.00,VWS V14.01,2013-01-11 22:11:00,
2013-01-11 17:16:00,75.7,67.6,30.19,SE,133,3.0,10.0,76,0.00,,CLR,0.00,VWS V14.01,2013-01-11 22:16:00,
2013-01-11 17:21:00,75.6,67.9,30.19,SE,144,3.0,10.0,77,0.00,,CLR,0.00,VWS V14.01,2013-01-11 22:21:00,
2013-01-11 17:26:00,75.5,67.8,30.19,ESE,121,2.0,10.0,77,0.00,,CLR,0.00,VWS V14.01,2013-01-11 22:26:00,
2013-01-11 17:31:00,75.3,68.0,30.19,SSE,154,0.0,10.0,78,0.00,,CLR,0.00,VWS V14.01,2013-01-11 22:31:00,
2013-01-11 17:36:00,75.1,67.8,30.19,SE,127,3.0,10.0,78,0.00,,CLR,0.00,VWS V14.01,2013-01-11 22:36:00,
2013-01-11 17:41:00,75.0,68.1,30.20,ESE,115,5.0,10.0,79,0.00,,CLR,0.00,VWS V14.01,2013-01-11 22:41:00,
2013-01-11 17:46:00,74.8,67.9,30.19,SE,125,0.0,10.0,79,0.00,,CLR,0.00,VWS V14.01,2013-01-11 22:46:00,
2013-01-11 17:51:00,74.7,67.8,30.19,SE,129,2.0,10.0,79,0.00,,CLR,0.00,VWS V14.01,2013-01-11 22:51:00,
2013-01-11 17:56:00,74.6,68.0,30.19,SE,126,3.0,10.0,80,0.00,,CLR,0.00,VWS V14.01,2013-01-11 22:56:00,
2013-01-11 18:01:00,74.5,67.9,30.19,SE,126,3.0,6.0,80,0.00,,CLR,0.00,VWS V14.01,2013-01-11 23:01:00,
2013-01-11 18:06:00,74.3,68.1,30.19,SE,138,2.0,6.0,81,0.00,,CLR,0.00,VWS V14.01,2013-01-11 23:06:00,
2013-01-11 18:11:00,74.2,68.0,30.20,ESE,117,0.0,6.0,81,0.00,,CLR,0.00,VWS V14.01,2013-01-11 23:11:00,
2013-01-11 18:16:00,74.1,68.3,30.20,ESE,113,3.0,6.0,82,0.00,,CLR,0.00,VWS V14.01,2013-01-11 23:16:00,
2013-01-11 18:21:00,73.8,68.0,30.20,ESE,115,1.0,6.0,82,0.00,,CLR,0.00,VWS V14.01,2013-01-11 23:21:00,
2013-01-11 18:26:00,73.7,68.6,30.20,ESE,109,0.0,6.0,84,0.00,,CLR,0.00,VWS V14.01,2013-01-11 23:26:00,
2013-01-11 18:31:00,73.6,68.1,30.20,ESE,114,0.0,6.0,83,0.00,,CLR,0.00,VWS V14.01,2013-01-11 23:31:00,
2013-01-11 18:36:00,73.4,67.9,30.20,ESE,115,0.0,6.0,83,0.00,,CLR,0.00,VWS V14.01,2013-01-11 23:36:00,
2013-01-11 18:41:00,73.3,67.8,30.21,ESE,115,1.0,6.0,83,0.00,,CLR,0.00,VWS V14.01,2013-01-11 23:41:00,
2013-01-11 18:46:00,73.2,68.1,30.20,ESE,115,0.0,6.0,84,0.00,,CLR,0.00,VWS V14.01,2013-01-11 23:46:00,
2013-01-11 18:51:00,73.1,68.0,30.21,ESE,115,0.0,6.0,84,0.00,,CLR,0.00,VWS V14.01,2013-01-11 23:51:00,
2013-01-11 18:56:00,73.0,67.9,30.22,ESE,116,0.0,6.0,84,0.00,,CLR,0.00,VWS V14.01,2013-01-11 23:56:00,
2013-01-11 19:01:00,72.9,67.8,30.20,ESE,116,0.0,0.0,84,0.00,,CLR,0.00,VWS V14.01,2013-01-12 00:01:00,
2013-01-11 19:06:00,72.8,67.7,30.20,ESE,116,0.0,0.0,84,0.00,,CLR,0.00,VWS V14.01,2013-01-12 00:06:00,
2013-01-11 19:11:00,72.7,67.6,30.21,ESE,116,0.0,0.0,84,0.00,,CLR,0.00,VWS V14.01,2013-01-12 00:11:00,
2013-01-11 19:16:00,72.7,67.6,30.21,ESE,116,0.0,0.0,84,0.00,,CLR,0.00,VWS V14.01,2013-01-12 00:16:00,
2013-01-11 19:21:00,72.6,67.8,30.21,ESE,116,0.0,0.0,85,0.00,,CLR,0.00,VWS V14.01,2013-01-12 00:21:00,
2013-01-11 19:26:00,72.5,67.7,30.20,ESE,116,0.0,0.0,85,0.00,,CLR,0.00,VWS V14.01,2013-01-12 00:26:00,
2013-01-11 19:31:00,72.5,67.7,30.21,ESE,116,0.0,0.0,85,0.00,,CLR,0.00,VWS V14.01,2013-01-12 00:31:00,
2013-01-11 19:36:00,72.4,68.0,30.21,ESE,114,0.0,0.0,86,0.00,,CLR,0.00,VWS V14.01,2013-01-12 00:36:00,
2013-01-11 19:41:00,72.3,67.5,30.21,ESE,115,0.0,1.0,85,0.00,,CLR,0.00,VWS V14.01,2013-01-12 00:41:00,
2013-01-11 19:46:00,72.3,67.5,30.20,ESE,116,0.0,1.0,85,0.00,,CLR,0.00,VWS V14.01,2013-01-12 00:46:00,
2013-01-11 19:51:00,72.1,67.7,30.22,ESE,115,0.0,1.0,86,0.00,,CLR,0.00,VWS V14.01,2013-01-12 00:51:00,
2013-01-11 19:56:00,71.9,67.8,30.20,ESE,113,0.0,3.0,87,0.00,,CLR,0.00,VWS V14.01,2013-01-12 00:56:00,
2013-01-11 20:01:00,71.8,67.7,30.20,ESE,116,0.0,1.0,87,0.00,,CLR,0.00,VWS V14.01,2013-01-12 01:01:00,
2013-01-11 20:06:00,71.7,67.6,30.20,ESE,117,0.0,3.0,87,0.00,,CLR,0.00,VWS V14.01,2013-01-12 01:06:00,
2013-01-11 20:12:00,71.6,67.5,30.20,ESE,120,3.0,4.0,87,0.00,,CLR,0.00,VWS V14.01,2013-01-12 01:12:00,
2013-01-11 20:17:00,71.5,67.4,30.21,ESE,120,0.0,4.0,87,0.00,,CLR,0.00,VWS V14.01,2013-01-12 01:17:00,
2013-01-11 20:22:00,71.5,67.8,30.20,SSE,165,2.0,4.0,88,0.00,,CLR,0.00,VWS V14.01,2013-01-12 01:22:00,
2013-01-11 20:27:00,71.5,67.8,30.20,SE,134,0.0,5.0,88,0.00,,CLR,0.00,VWS V14.01,2013-01-12 01:27:00,
2013-01-11 20:32:00,71.4,67.7,30.21,SE,134,1.0,5.0,88,0.00,,CLR,0.00,VWS V14.01,2013-01-12 01:32:00,
2013-01-11 20:37:00,71.4,67.7,30.20,SE,124,2.0,5.0,88,0.00,,CLR,0.00,VWS V14.01,2013-01-12 01:37:00,
2013-01-11 20:42:00,71.4,67.7,30.20,ESE,122,0.0,5.0,88,0.00,,CLR,0.00,VWS V14.01,2013-01-12 01:42:00,
2013-01-11 20:47:00,71.3,67.6,30.21,ESE,122,1.0,5.0,88,0.00,,CLR,0.00,VWS V14.01,2013-01-12 01:47:00,
2013-01-11 20:52:00,71.3,67.2,30.20,SE,138,3.0,5.0,87,0.00,,CLR,0.00,VWS V14.01,2013-01-12 01:52:00,
2013-01-11 20:57:00,71.2,67.1,30.20,SE,126,0.0,5.0,87,0.00,,CLR,0.00,VWS V14.01,2013-01-12 01:57:00,
2013-01-11 21:02:00,71.1,67.4,30.20,SE,133,3.0,4.0,88,0.00,,CLR,0.00,VWS V14.01,2013-01-12 02:02:00,
2013-01-11 21:07:00,71.1,67.0,30.20,ESE,121,0.0,4.0,87,0.00,,CLR,0.00,VWS V14.01,2013-01-12 02:07:00,
2013-01-11 21:12:00,71.0,67.3,30.20,ESE,119,0.0,4.0,88,0.00,,CLR,0.00,VWS V14.01,2013-01-12 02:12:00,
2013-01-11 21:17:00,70.9,67.2,30.20,ESE,120,0.0,4.0,88,0.00,,CLR,0.00,VWS V14.01,2013-01-12 02:17:00,
2013-01-11 21:22:00,70.8,67.1,30.20,ESE,118,0.0,4.0,88,0.00,,CLR,0.00,VWS V14.01,2013-01-12 02:22:00,
2013-01-11 21:27:00,70.8,67.4,30.20,ESE,122,2.0,4.0,89,0.00,,CLR,0.00,VWS V14.01,2013-01-12 02:27:00,
2013-01-11 21:32:00,70.7,67.0,30.19,SE,137,2.0,5.0,88,0.00,,CLR,0.00,VWS V14.01,2013-01-12 02:32:00,
2013-01-11 21:37:00,70.7,67.0,30.19,SE,126,3.0,5.0,88,0.00,,CLR,0.00,VWS V14.01,2013-01-12 02:37:00,
2013-01-11 21:42:00,70.7,67.0,30.20,ESE,123,3.0,7.0,88,0.00,,CLR,0.00,VWS V14.01,2013-01-12 02:42:00,
2013-01-11 21:47:00,70.8,67.1,30.20,ESE,122,2.0,7.0,88,0.00,,CLR,0.00,VWS V14.01,2013-01-12 02:47:00,
2013-01-11 21:52:00,70.7,67.0,30.20,SE,128,0.0,7.0,88,0.00,,CLR,0.00,VWS V14.01,2013-01-12 02:52:00,
2013-01-11 21:57:00,70.8,67.1,30.20,ESE,120,0.0,7.0,88,0.00,,CLR,0.00,VWS V14.01,2013-01-12 02:57:00,
2013-01-11 22:02:00,70.8,67.1,30.20,ESE,120,0.0,1.0,88,0.00,,CLR,0.00,VWS V14.01,2013-01-12 03:02:00,
2013-01-11 22:07:00,70.8,67.1,30.20,ESE,120,0.0,1.0,88,0.00,,CLR,0.00,VWS V14.01,2013-01-12 03:07:00,
2013-01-11 22:12:00,70.8,66.7,30.20,ESE,120,0.0,3.0,87,0.00,,CLR,0.00,VWS V14.01,2013-01-12 03:12:00,
2013-01-11 22:17:00,70.8,67.1,30.20,ESE,119,0.0,3.0,88,0.00,,CLR,0.00,VWS V14.01,2013-01-12 03:17:00,
2013-01-11 22:22:00,70.8,66.7,30.20,ESE,120,0.0,3.0,87,0.00,,CLR,0.00,VWS V14.01,2013-01-12 03:22:00,
2013-01-11 22:27:00,70.8,67.1,30.20,ESE,120,0.0,3.0,88,0.00,,CLR,0.00,VWS V14.01,2013-01-12 03:27:00,
2013-01-11 22:32:00,70.8,67.1,30.20,ESE,120,0.0,3.0,88,0.00,,CLR,0.00,VWS V14.01,2013-01-12 03:32:00,
2013-01-11 22:37:00,70.7,66.7,30.20,ESE,120,0.0,3.0,87,0.00,,CLR,0.00,VWS V14.01,2013-01-12 03:37:00,
2013-01-11 22:42:00,70.7,66.7,30.21,ESE,120,0.0,3.0,87,0.00,,CLR,0.00,VWS V14.01,2013-01-12 03:42:00,
2013-01-11 22:47:00,70.6,66.6,30.21,ESE,119,0.0,3.0,87,0.00,,CLR,0.00,VWS V14.01,2013-01-12 03:47:00,
2013-01-11 22:52:00,70.5,66.1,30.21,ESE,120,0.0,3.0,86,0.00,,CLR,0.00,VWS V14.01,2013-01-12 03:52:00,
2013-01-11 22:57:00,70.4,66.0,30.20,ESE,119,0.0,3.0,86,0.00,,CLR,0.00,VWS V14.01,2013-01-12 03:57:00,
2013-01-11 23:02:00,70.4,66.0,30.20,ESE,119,0.0,0.0,86,0.00,,CLR,0.00,VWS V14.01,2013-01-12 04:02:00,
2013-01-11 23:07:00,70.3,65.9,30.20,ESE,119,0.0,0.0,86,0.00,,CLR,0.00,VWS V14.01,2013-01-12 04:07:00,
2013-01-11 23:12:00,70.2,65.8,30.20,ESE,119,0.0,0.0,86,0.00,,CLR,0.00,VWS V14.01,2013-01-12 04:12:00,
2013-01-11 23:17:00,70.0,65.3,30.20,ESE,119,0.0,0.0,85,0.00,,CLR,0.00,VWS V14.01,2013-01-12 04:17:00,
2013-01-11 23:22:00,69.6,65.2,30.19,ESE,119,0.0,0.0,86,0.00,,CLR,0.00,VWS V14.01,2013-01-12 04:22:00,
2013-01-11 23:27:00,69.4,65.0,30.20,ESE,119,0.0,0.0,86,0.00,,CLR,0.00,VWS V14.01,2013-01-12 04:27:00,
2013-01-11 23:32:00,69.3,64.9,30.21,ESE,119,0.0,0.0,86,0.00,,CLR,0.00,VWS V14.01,2013-01-12 04:32:00,
2013-01-11 23:37:00,69.2,64.8,30.20,ESE,118,0.0,0.0,86,0.00,,CLR,0.00,VWS V14.01,2013-01-12 04:37:00,
2013-01-11 23:42:00,69.1,64.7,30.20,ESE,119,0.0,0.0,86,0.00,,CLR,0.00,VWS V14.01,2013-01-12 04:42:00,
2013-01-11 23:47:00,68.9,64.6,30.20,ESE,119,0.0,0.0,86,0.00,,CLR,0.00,VWS V14.01,2013-01-12 04:47:00,
2013-01-11 23:52:00,68.5,64.2,30.19,ESE,119,0.0,0.0,86,0.00,,CLR,0.00,VWS V14.01,2013-01-12 04:52:00,
2013-01-11 23:57:00,68.1,63.8,30.20,ESE,119,0.0,0.0,86,0.00,,CLR,0.00,VWS V14.01,2013-01-12 04:57:00,